Time;durP1;ratioP1;P1;durP2;ratioP2;P2;SDS_P1;SDS_P2;PMS_P1;PMS_P2;Temp;Humidity;BMP_temperature;BMP_pressure;BME280_temperature;BME280_humidity;BME280_pressure;Samples;Min_cycle;Max_cycle;Signal;HPM_P1;HPM_P2
2021/01/04 00:02:03;;;;;;;53.70;26.93;;;;;;;1.38;100.00;99669.25;1758177;81;21272;-70
2021/01/04 00:04:48;;;;;;;62.03;26.20;;;;;;;1.40;100.00;99662.56;1758968;81;21569;-71
2021/01/04 00:07:45;;;;;;;52.33;27.02;;;;;;;1.44;100.00;99666.65;1724949;81;21158;-70
2021/01/04 00:10:55;;;;;;;55.43;27.40;;;;;;;1.46;100.00;99665.08;1757858;81;21692;-69
2021/01/04 00:13:55;;;;;;;56.28;26.60;;;;;;;1.46;100.00;99670.16;1758962;81;21126;-70
2021/01/04 00:16:49;;;;;;;65.62;28.65;;;;;;;1.45;100.00;99670.97;1693930;83;21158;-71
2021/01/04 00:19:51;;;;;;;57.48;26.60;;;;;;;1.50;100.00;99654.67;1853483;77;22164;-70
2021/01/04 00:23:01;;;;;;;56.33;24.67;;;;;;;1.47;100.00;99655.38;1811075;78;21521;-71
2021/01/04 00:25:47;;;;;;;55.95;27.02;;;;;;;1.47;100.00;99668.09;1826145;78;21514;-71
2021/01/04 00:28:20;;;;;;;54.90;28.07;;;;;;;1.46;100.00;99659.98;1759030;81;21146;-71
2021/01/04 00:31:00;;;;;;;57.70;26.50;;;;;;;1.51;100.00;99672.98;1759025;81;21181;-70
2021/01/04 00:33:39;;;;;;;63.58;28.57;;;;;;;1.54;100.00;99672.28;1776929;81;21132;-70
2021/01/04 00:36:32;;;;;;;49.50;24.27;;;;;;;1.54;100.00;99676.97;1758715;81;21219;-71
2021/01/04 00:39:26;;;;;;;54.75;27.05;;;;;;;1.55;100.00;99672.75;1759012;81;21557;-70
2021/01/04 00:42:27;;;;;;;43.30;23.73;;;;;;;1.55;100.00;99667.66;1790069;80;21150;-70
2021/01/04 00:45:18;;;;;;;55.12;26.85;;;;;;;1.58;100.00;99667.47;1684877;84;21249;-70
2021/01/04 00:48:18;;;;;;;45.43;25.55;;;;;;;1.60;100.00;99656.95;1819492;77;28095;-69
2021/01/04 00:54:32;;;;;;;48.40;25.30;;;;;;;1.60;100.00;99670.08;1792003;80;21573;-71
2021/01/04 00:57:32;;;;;;;49.70;24.87;;;;;;;1.61;100.00;99671.45;1793561;78;21143;-69
2021/01/04 01:00:24;;;;;;;42.88;21.40;;;;;;;1.58;100.00;99670.38;1793678;79;21170;-70
2021/01/04 01:03:09;;;;;;;48.58;22.85;;;;;;;1.58;100.00;99668.73;1793802;80;21324;-70
2021/01/04 01:05:58;;;;;;;43.35;20.65;;;;;;;1.57;100.00;99672.05;1793668;80;21118;-69
2021/01/04 01:08:34;;;;;;;45.08;22.30;;;;;;;1.58;100.00;99674.19;1793697;80;21150;-69
2021/01/04 01:11:10;;;;;;;41.88;20.25;;;;;;;1.59;100.00;99675.56;1793462;80;21146;-69
2021/01/04 01:14:12;;;;;;;47.25;22.90;;;;;;;1.57;100.00;99661.00;1793736;80;21134;-71
2021/01/04 01:16:57;;;;;;;44.15;19.92;;;;;;;1.58;100.00;99666.56;1793889;80;21553;-69
2021/01/04 01:19:36;;;;;;;36.88;17.20;;;;;;;1.55;100.00;99663.84;1792841;80;21119;-70
2021/01/04 01:22:04;;;;;;;41.42;21.55;;;;;;;1.54;100.00;99667.20;1791668;79;21166;-70
2021/01/04 01:24:33;;;;;;;42.15;21.65;;;;;;;1.58;100.00;99664.02;1793654;79;21119;-69
2021/01/04 01:27:42;;;;;;;42.40;21.68;;;;;;;1.60;100.00;99666.27;1793628;80;21879;-71
2021/01/04 01:30:33;;;;;;;37.53;19.30;;;;;;;1.62;100.00;99635.44;1793734;79;21142;-70
2021/01/04 01:33:56;;;;;;;35.20;18.92;;;;;;;1.63;100.00;99640.63;1793832;78;21147;-71
2021/01/04 01:37:01;;;;;;;38.10;18.80;;;;;;;1.64;100.00;99642.37;1793631;80;21168;-71
2021/01/04 01:40:10;;;;;;;37.80;18.60;;;;;;;1.67;100.00;99627.27;1759723;80;21110;-69
2021/01/04 01:43:10;;;;;;;40.03;20.50;;;;;;;1.67;100.00;99649.30;1793938;80;21158;-69
2021/01/04 01:45:49;;;;;;;39.58;21.40;;;;;;;1.65;100.00;99649.59;1793492;80;21561;-69
2021/01/04 01:48:31;;;;;;;42.67;22.10;;;;;;;1.67;100.00;99651.84;1794203;80;21530;-70
2021/01/04 01:51:08;;;;;;;40.00;18.17;;;;;;;1.67;100.00;99662.02;1794205;79;21581;-70
2021/01/04 01:53:55;;;;;;;35.58;19.40;;;;;;;1.65;100.00;99669.95;1792214;80;21719;-70
2021/01/04 01:56:48;;;;;;;35.50;19.48;;;;;;;1.64;100.00;99659.30;1793019;80;21154;-70
2021/01/04 01:59:40;;;;;;;36.98;19.55;;;;;;;1.67;100.00;99658.20;1787039;80;21719;-71
2021/01/04 02:02:34;;;;;;;33.50;17.57;;;;;;;1.69;100.00;99650.27;1792254;80;21166;-69
2021/01/04 02:05:16;;;;;;;34.35;18.48;;;;;;;1.71;100.00;99644.88;1793017;79;21127;-70
2021/01/04 02:08:04;;;;;;;41.40;20.37;;;;;;;1.73;100.00;99646.72;1792927;79;21684;-71
2021/01/04 02:10:39;;;;;;;35.03;18.50;;;;;;;1.79;100.00;99637.28;1792385;80;21569;-69
2021/01/04 02:13:27;;;;;;;36.05;19.48;;;;;;;1.80;100.00;99644.51;1792722;79;21635;-70
2021/01/04 02:16:03;;;;;;;34.75;18.50;;;;;;;1.78;100.00;99638.08;1793036;80;21293;-69
2021/01/04 02:19:10;;;;;;;35.03;18.65;;;;;;;1.78;100.00;99637.17;1791887;79;21138;-70
2021/01/04 02:22:15;;;;;;;29.95;17.65;;;;;;;1.79;100.00;99640.22;1793149;79;21205;-70
2021/01/04 02:24:43;;;;;;;32.48;18.02;;;;;;;1.78;100.00;99638.08;1793149;80;21553;-69
2021/01/04 02:27:24;;;;;;;32.53;17.02;;;;;;;1.75;100.00;99651.88;1793018;79;21171;-70
2021/01/04 02:29:52;;;;;;;32.17;17.10;;;;;;;1.75;100.00;99650.60;1792778;79;21720;-71
2021/01/04 02:32:21;;;;;;;33.85;18.05;;;;;;;1.76;100.00;99648.56;1793145;79;21338;-70
2021/01/04 02:34:53;;;;;;;32.35;17.57;;;;;;;1.77;100.00;99642.66;1793146;80;21142;-70
2021/01/04 02:37:24;;;;;;;31.90;17.35;;;;;;;1.78;100.00;99649.90;1792967;80;21119;-71
2021/01/04 02:39:59;;;;;;;34.30;17.85;;;;;;;1.79;100.00;99645.31;1793021;80;21552;-70
2021/01/04 02:42:45;;;;;;;31.70;17.00;;;;;;;1.79;100.00;99653.81;1793114;79;21545;-70
2021/01/04 02:45:26;;;;;;;33.05;18.12;;;;;;;1.77;100.00;99650.30;1792927;79;21154;-70
2021/01/04 02:48:31;;;;;;;32.00;16.05;;;;;;;1.80;100.00;99657.23;1793382;80;21692;-70
2021/01/04 02:51:17;;;;;;;35.08;18.62;;;;;;;1.82;100.00;99647.62;1793233;80;21285;-70
2021/01/04 02:54:25;;;;;;;35.03;18.00;;;;;;;1.82;100.00;99651.44;1793355;80;21573;-69
2021/01/04 02:57:26;;;;;;;32.33;18.40;;;;;;;1.84;100.00;99657.50;1793410;80;21139;-69
2021/01/04 03:00:01;;;;;;;31.85;16.82;;;;;;;1.86;100.00;99655.92;1793360;79;21170;-70
2021/01/04 03:02:44;;;;;;;31.17;16.93;;;;;;;1.85;100.00;99664.73;1793097;80;21313;-69
2021/01/04 03:05:16;;;;;;;33.25;18.02;;;;;;;1.82;100.00;99622.17;1793117;79;21128;-69
2021/01/04 03:07:58;;;;;;;30.25;16.73;;;;;;;1.83;100.00;99660.84;1793259;80;21301;-68
2021/01/04 03:10:36;;;;;;;37.17;18.43;;;;;;;1.82;100.00;99655.25;1793283;80;21169;-70
2021/01/04 03:13:15;;;;;;;33.50;17.65;;;;;;;1.83;100.00;99662.12;1793406;80;21127;-69
2021/01/04 03:16:21;;;;;;;31.12;16.15;;;;;;;1.83;100.00;99650.67;1792358;79;21122;-69
2021/01/04 03:19:00;;;;;;;33.20;15.98;;;;;;;1.81;100.00;99648.83;1793362;79;21548;-69
2021/01/04 03:21:29;;;;;;;30.80;14.80;;;;;;;1.79;100.00;99644.91;1793124;79;21284;-69
2021/01/04 03:23:59;;;;;;;29.00;16.85;;;;;;;1.81;100.00;99650.10;1793143;79;21123;-69
2021/01/04 03:26:34;;;;;;;29.90;15.63;;;;;;;1.79;100.00;99646.18;1793028;79;21296;-70
2021/01/04 03:29:02;;;;;;;30.92;16.42;;;;;;;1.77;100.00;99660.48;1783639;80;21268;-70
2021/01/04 03:31:30;;;;;;;26.77;15.05;;;;;;;1.76;100.00;99651.11;1793196;78;21170;-69
2021/01/04 03:33:58;;;;;;;32.03;18.30;;;;;;;1.76;100.00;99649.83;1793052;80;21557;-68
2021/01/04 03:36:25;;;;;;;33.60;18.05;;;;;;;1.78;100.00;99654.62;1793201;78;21138;-69
2021/01/04 03:38:53;;;;;;;28.35;16.90;;;;;;;1.78;100.00;99644.44;1793198;79;21280;-69
2021/01/04 03:41:21;;;;;;;29.80;15.00;;;;;;;1.78;100.00;99632.98;1793369;80;21553;-70
2021/01/04 03:43:48;;;;;;;30.35;15.72;;;;;;;1.79;100.00;99646.59;1793300;80;21155;-69
2021/01/04 03:46:16;;;;;;;34.55;18.10;;;;;;;1.80;100.00;99645.38;1793305;78;21161;-69
2021/01/04 03:48:44;;;;;;;30.10;16.32;;;;;;;1.80;100.00;99639.02;1779919;79;21116;-69
2021/01/04 03:51:13;;;;;;;27.02;14.98;;;;;;;1.80;100.00;99621.20;1779242;81;21139;-69
2021/01/04 03:53:43;;;;;;;30.02;17.87;;;;;;;1.79;100.00;99623.28;1779339;80;21143;-68
2021/01/04 03:56:18;;;;;;;26.70;16.48;;;;;;;1.80;100.00;99626.30;1779623;81;21123;-70
2021/01/04 03:58:47;;;;;;;29.65;16.70;;;;;;;1.81;100.00;99601.75;1779389;81;21577;-70
2021/01/04 04:01:15;;;;;;;29.45;16.65;;;;;;;1.82;100.00;99614.94;1779538;81;21293;-69
2021/01/04 04:03:43;;;;;;;27.67;15.30;;;;;;;1.81;100.00;99628.06;1779701;81;21538;-70
2021/01/04 04:06:13;;;;;;;25.05;14.07;;;;;;;1.78;100.00;99630.45;1779564;81;21565;-70
2021/01/04 04:08:41;;;;;;;34.73;18.10;;;;;;;1.80;100.00;99615.24;1779636;79;21292;-70
2021/01/04 04:11:14;;;;;;;31.48;16.97;;;;;;;1.80;100.00;99621.20;1779462;79;21159;-70
2021/01/04 04:13:42;;;;;;;33.78;17.45;;;;;;;1.80;100.00;99622.88;1779611;81;21281;-69
2021/01/04 04:16:10;;;;;;;29.30;16.65;;;;;;;1.80;100.00;99623.75;1779207;79;21292;-69
2021/01/04 04:18:38;;;;;;;29.15;16.30;;;;;;;1.81;100.00;99614.47;1779214;79;21277;-69
2021/01/04 04:21:07;;;;;;;29.32;15.90;;;;;;;1.84;100.00;99621.00;1779381;81;21309;-70
2021/01/04 04:23:35;;;;;;;29.40;15.75;;;;;;;1.84;100.00;99619.73;1779255;81;21151;-70
2021/01/04 04:26:02;;;;;;;27.80;14.68;;;;;;;1.86;100.00;99616.48;1779463;81;21131;-69
2021/01/04 04:28:30;;;;;;;31.87;16.23;;;;;;;1.87;100.00;99616.95;1779549;81;21281;-70
2021/01/04 04:30:58;;;;;;;30.20;15.78;;;;;;;1.86;100.00;99623.24;1779640;80;21281;-70
2021/01/04 04:33:26;;;;;;;28.77;15.80;;;;;;;1.87;100.00;99628.80;1779519;81;21111;-71
2021/01/04 04:35:53;;;;;;;28.98;14.30;;;;;;;1.86;100.00;99616.48;1779477;79;21301;-70
2021/01/04 04:38:21;;;;;;;26.97;15.05;;;;;;;1.88;100.00;99632.72;1779425;81;21293;-69
2021/01/04 04:40:50;;;;;;;30.12;14.93;;;;;;;1.88;100.00;99612.72;1779297;79;21146;-70
2021/01/04 04:43:38;;;;;;;29.40;15.95;;;;;;;1.88;100.00;99622.53;1779530;81;21576;-70
2021/01/04 04:46:10;;;;;;;32.42;15.03;;;;;;;1.89;100.00;99604.31;1773317;81;21273;-70
2021/01/04 04:48:55;;;;;;;30.05;15.20;;;;;;;1.88;100.00;99614.00;1770714;80;21146;-69
2021/01/04 04:51:40;;;;;;;31.77;16.60;;;;;;;1.89;100.00;99606.45;1789688;79;21339;-69
2021/01/04 04:54:31;;;;;;;29.80;13.85;;;;;;;1.93;100.00;99607.50;1789970;79;21127;-70
2021/01/04 04:57:32;;;;;;;26.02;14.13;;;;;;;1.90;100.00;99590.38;1787418;80;21154;-70
2021/01/04 05:00:12;;;;;;;29.35;13.93;;;;;;;1.90;100.00;99610.74;1789897;79;21154;-68
2021/01/04 05:03:11;;;;;;;26.93;13.58;;;;;;;1.92;100.00;99616.80;1760612;80;21281;-70
2021/01/04 05:06:07;;;;;;;27.45;15.45;;;;;;;1.94;100.00;99598.68;1789934;80;21520;-70
2021/01/04 05:09:17;;;;;;;29.40;13.75;;;;;;;1.96;100.00;99614.05;1789282;80;21146;-71
2021/01/04 05:11:49;;;;;;;26.68;14.75;;;;;;;1.95;100.00;99611.87;1789950;79;21565;-69
2021/01/04 05:14:19;;;;;;;;;;;;;;;1.97;100.00;99610.70;1792526;79;21150;-71
2021/01/04 05:16:58;;;;;;;26.20;13.78;;;;;;;1.98;100.00;99614.12;1789513;79;20435;-69
2021/01/04 05:19:54;;;;;;;25.02;12.82;;;;;;;1.99;100.00;99615.89;1786821;80;21140;-70
2021/01/04 05:22:45;;;;;;;25.48;13.75;;;;;;;2.01;100.00;99616.45;1736645;79;22350;-69
2021/01/04 05:25:44;;;;;;;27.07;13.20;;;;;;;2.03;100.00;99626.70;1789888;79;21107;-71
2021/01/04 05:28:52;;;;;;;25.75;13.95;;;;;;;2.05;100.00;99624.72;1789969;79;21668;-71
2021/01/04 05:32:13;;;;;;;28.20;14.35;;;;;;;2.07;100.00;99614.64;1748410;82;21316;-70
2021/01/04 05:34:48;;;;;;;25.92;13.38;;;;;;;2.05;100.00;99626.40;1748479;81;21147;-69
2021/01/04 05:37:42;;;;;;;25.15;13.20;;;;;;;2.04;100.00;99623.39;1786636;79;21569;-71
2021/01/04 05:40:54;;;;;;;27.98;14.28;;;;;;;2.05;100.00;99612.40;1789838;79;21517;-69
2021/01/04 05:43:41;;;;;;;26.73;12.75;;;;;;;2.10;100.00;99638.98;1789984;79;21296;-70
2021/01/04 05:46:23;;;;;;;22.48;12.33;;;;;;;2.13;100.00;99618.78;1789951;79;21162;-69
2021/01/04 05:49:19;;;;;;;28.27;12.07;;;;;;;2.13;100.00;99635.33;1782334;79;21158;-70
2021/01/04 05:51:50;;;;;;;25.45;12.10;;;;;;;2.11;100.00;99644.17;1776388;81;21277;-70
2021/01/04 05:54:37;;;;;;;25.88;12.03;;;;;;;2.12;100.00;99638.28;1779476;80;21155;-70
2021/01/04 05:57:09;;;;;;;22.45;11.63;;;;;;;2.13;100.00;99642.56;1779309;80;21166;-70
2021/01/04 05:59:51;;;;;;;;;;;;;;;2.11;100.00;99622.53;1781948;81;21155;-70
2021/01/04 06:02:29;;;;;;;25.23;11.25;;;;;;;2.13;100.00;99640.02;1779468;79;20143;-70
2021/01/04 06:05:19;;;;;;;21.97;12.18;;;;;;;2.13;100.00;99621.33;1779508;79;21306;-70
2021/01/04 06:07:47;;;;;;;22.73;13.08;;;;;;;2.11;100.00;99633.09;1779612;81;21522;-69
2021/01/04 06:10:23;;;;;;;21.15;11.57;;;;;;;2.17;100.00;99638.54;1779822;79;21142;-69
2021/01/04 06:12:52;;;;;;;24.52;14.23;;;;;;;2.17;100.00;99633.45;1713050;83;21722;-69
2021/01/04 06:15:36;;;;;;;21.97;12.70;;;;;;;2.16;100.00;99635.48;1779693;81;21246;-69
2021/01/04 06:18:12;;;;;;;24.75;14.33;;;;;;;2.17;100.00;99616.48;1779537;81;21143;-70
2021/01/04 06:20:48;;;;;;;24.35;13.43;;;;;;;2.23;100.00;99625.26;1779434;79;21147;-69
2021/01/04 06:23:29;;;;;;;24.67;13.53;;;;;;;2.27;100.00;99638.66;1779414;79;21155;-70
2021/01/04 06:26:03;;;;;;;27.77;14.35;;;;;;;2.25;100.00;99637.28;1779129;80;21112;-69
2021/01/04 06:28:30;;;;;;;23.92;14.07;;;;;;;2.25;100.00;99648.73;1778594;80;21617;-70
2021/01/04 06:31:05;;;;;;;25.90;12.58;;;;;;;2.24;100.00;99647.00;1779265;79;21178;-70
2021/01/04 06:33:34;;;;;;;25.05;14.25;;;;;;;2.23;100.00;99643.95;1779513;80;21574;-69
2021/01/04 06:36:07;;;;;;;26.33;14.58;;;;;;;2.24;100.00;99653.37;1779274;81;21285;-70
2021/01/04 06:38:38;;;;;;;25.45;14.35;;;;;;;2.25;100.00;99645.33;1779674;81;21557;-71
2021/01/04 06:41:29;;;;;;;23.70;12.85;;;;;;;2.27;100.00;99631.88;1779605;79;21115;-71
2021/01/04 06:44:13;;;;;;;21.80;12.80;;;;;;;2.30;100.00;99652.41;1779542;79;21514;-68
2021/01/04 06:47:13;;;;;;;20.95;13.50;;;;;;;2.27;100.00;99658.62;1779443;81;21277;-71
2021/01/04 06:50:33;;;;;;;25.60;13.43;;;;;;;2.29;100.00;99657.41;1778873;80;21316;-69
2021/01/04 06:53:51;;;;;;;22.00;11.93;;;;;;;2.29;100.00;99667.23;1712243;83;21247;-69
2021/01/04 06:56:50;;;;;;;23.80;12.05;;;;;;;2.26;100.00;99659.39;1646704;87;21177;-69
2021/01/04 06:59:52;;;;;;;20.75;11.65;;;;;;;2.24;100.00;99657.19;1695937;84;21315;-69
2021/01/04 07:03:00;;;;;;;22.75;12.85;;;;;;;2.25;100.00;99632.59;1696476;84;21135;-68
2021/01/04 07:05:42;;;;;;;20.88;12.75;;;;;;;2.23;100.00;99654.14;1674894;84;21192;-71
2021/01/04 07:08:47;;;;;;;21.02;12.35;;;;;;;2.26;100.00;99649.20;1679307;85;21291;-69
2021/01/04 07:11:46;;;;;;;28.67;14.98;;;;;;;2.24;100.00;99635.54;1689750;84;21291;-70
2021/01/04 07:14:22;;;;;;;25.77;13.65;;;;;;;2.25;100.00;99629.64;1675237;85;21567;-69
2021/01/04 07:17:16;;;;;;;27.90;15.53;;;;;;;2.25;100.00;99634.73;1677312;84;21195;-69
2021/01/04 07:20:08;;;;;;;25.15;13.95;;;;;;;2.25;100.00;99636.00;1676757;84;21604;-70
2021/01/04 07:22:56;;;;;;;27.02;15.48;;;;;;;2.28;100.00;99639.98;1702186;84;21181;-70
2021/01/04 07:26:01;;;;;;;22.62;12.43;;;;;;;2.25;100.00;99641.09;1680640;84;21218;-71
2021/01/04 07:28:46;;;;;;;23.95;14.45;;;;;;;2.27;100.00;99643.34;1702626;84;21193;-69
2021/01/04 07:31:25;;;;;;;23.73;13.18;;;;;;;2.27;100.00;99651.38;1672156;84;21421;-68
2021/01/04 07:34:03;;;;;;;22.62;12.35;;;;;;;2.30;100.00;99643.50;1676209;85;21161;-73
2021/01/04 07:36:45;;;;;;;26.02;15.98;;;;;;;2.35;100.00;99653.54;1644529;87;21596;-71
2021/01/04 07:39:40;;;;;;;25.20;13.80;;;;;;;2.34;100.00;99650.53;1647731;87;21166;-72
2021/01/04 07:42:51;;;;;;;27.98;14.58;;;;;;;2.33;100.00;99650.03;1692724;84;21268;-67
2021/01/04 07:45:49;;;;;;;24.67;14.63;;;;;;;2.36;100.00;99635.31;1675614;85;21185;-68
2021/01/04 07:49:13;;;;;;;25.65;13.78;;;;;;;2.40;100.00;99647.43;1675449;85;21268;-69
2021/01/04 07:52:21;;;;;;;32.42;15.05;;;;;;;2.40;100.00;99644.88;1689979;84;21699;-70
2021/01/04 07:55:45;;;;;;;27.82;15.00;;;;;;;2.44;100.00;99659.52;1690834;84;21223;-69
2021/01/04 07:58:43;;;;;;;27.67;14.07;;;;;;;2.46;100.00;99658.34;1656280;85;21640;-70
2021/01/04 08:01:35;;;;;;;27.32;14.30;;;;;;;2.51;100.00;99658.19;1667745;86;21188;-70
2021/01/04 08:04:46;;;;;;;24.10;14.53;;;;;;;2.52;100.00;99663.38;1646347;86;21232;-66
2021/01/04 08:08:10;;;;;;;26.57;15.50;;;;;;;2.60;100.00;99664.67;1657323;86;21331;-72
2021/01/04 08:11:12;;;;;;;30.90;15.70;;;;;;;2.68;100.00;99661.66;1680297;85;21153;-71
2021/01/04 08:14:28;;;;;;;27.13;14.75;;;;;;;2.71;100.00;99665.23;1686894;84;21114;-74
2021/01/04 08:17:12;;;;;;;27.52;15.78;;;;;;;2.70;100.00;99655.84;1673329;86;21145;-72
2021/01/04 08:19:43;;;;;;;27.45;14.85;;;;;;;2.70;100.00;99675.36;1673211;86;21335;-71
2021/01/04 08:22:46;;;;;;;25.37;13.32;;;;;;;2.78;100.00;99678.78;1673369;84;21181;-72
2021/01/04 08:25:54;;;;;;;26.90;14.50;;;;;;;2.81;100.00;99671.30;1672862;86;21233;-71
2021/01/04 08:28:44;;;;;;;26.37;14.18;;;;;;;2.81;100.00;99687.86;1681014;84;21243;-75
2021/01/04 08:31:33;;;;;;;25.70;13.93;;;;;;;2.80;100.00;99680.16;1690427;84;21129;-70
2021/01/04 08:34:07;;;;;;;31.62;16.07;;;;;;;2.75;100.00;99653.14;1703054;84;21596;-73
2021/01/04 08:36:59;;;;;;;26.77;14.03;;;;;;;2.73;100.00;99675.12;1702727;84;21190;-71
2021/01/04 08:39:38;;;;;;;23.40;13.10;;;;;;;2.72;100.00;99684.84;1703066;84;21177;-72
2021/01/04 08:42:21;;;;;;;28.42;16.17;;;;;;;2.71;100.00;99676.70;1702497;84;21190;-70
2021/01/04 08:45:09;;;;;;;31.85;14.55;;;;;;;2.70;100.00;99668.99;1702406;84;21335;-72
2021/01/04 08:47:51;;;;;;;27.15;15.05;;;;;;;2.73;100.00;99671.30;1702696;84;21185;-72
2021/01/04 08:50:37;;;;;;;27.52;14.60;;;;;;;2.76;100.00;99677.82;1703109;84;21193;-72
2021/01/04 08:53:14;;;;;;;27.13;14.70;;;;;;;2.81;100.00;99659.83;1702602;84;21181;-66
2021/01/04 08:55:42;;;;;;;28.30;16.57;;;;;;;2.89;100.00;99670.42;1702682;84;21207;-68
2021/01/04 08:58:25;;;;;;;29.18;15.63;;;;;;;2.92;100.00;99654.41;1702886;84;21173;-69
2021/01/04 09:01:10;;;;;;;28.30;16.00;;;;;;;2.92;100.00;99664.61;1694907;84;21142;-68
2021/01/04 09:03:39;;;;;;;29.98;17.52;;;;;;;2.93;100.00;99674.03;1676073;84;21176;-67
2021/01/04 09:06:45;;;;;;;31.12;16.60;;;;;;;2.96;100.00;99667.41;1691782;84;21177;-67
2021/01/04 09:09:22;;;;;;;31.15;17.05;;;;;;;2.98;100.00;99670.92;1690206;84;21330;-71
2021/01/04 09:12:20;;;;;;;28.80;16.15;;;;;;;3.03;100.00;99673.72;1701368;84;21303;-70
2021/01/04 09:15:23;;;;;;;31.30;17.05;;;;;;;3.05;100.00;99674.65;1702992;84;21397;-71
2021/01/04 09:18:05;;;;;;;31.25;17.45;;;;;;;3.04;100.00;99671.63;1702828;84;21335;-72
2021/01/04 09:20:56;;;;;;;35.03;18.32;;;;;;;3.02;100.00;99663.02;1702844;84;21193;-70
2021/01/04 09:23:29;;;;;;;29.92;16.93;;;;;;;3.02;100.00;99666.84;1702985;84;21599;-70
2021/01/04 09:26:09;;;;;;;32.95;17.48;;;;;;;3.03;100.00;99658.42;1703014;84;21616;-70
2021/01/04 09:28:48;;;;;;;33.50;19.25;;;;;;;3.06;100.00;99657.30;1702200;84;21787;-71
2021/01/04 09:31:18;;;;;;;30.97;17.40;;;;;;;3.13;100.00;99654.64;1694063;84;21284;-71
2021/01/04 09:33:50;;;;;;;34.33;18.20;;;;;;;3.18;100.00;99660.48;1657547;86;21300;-71
2021/01/04 09:36:21;;;;;;;;;;;;;;;3.19;100.00;99654.57;1666270;86;21157;-70
2021/01/04 09:38:51;;;;;;;32.50;18.90;;;;;;;3.22;100.00;99655.12;1680499;85;20147;-70
2021/01/04 09:41:19;;;;;;;37.80;20.15;;;;;;;3.24;100.00;99655.69;1658835;86;21174;-71
2021/01/04 09:43:46;;;;;;;43.33;21.15;;;;;;;3.22;100.00;99653.45;1658952;86;21166;-71
2021/01/04 09:46:22;;;;;;;44.10;23.25;;;;;;;3.22;100.00;99657.27;1672743;85;21344;-73
2021/01/04 09:49:09;;;;;;;34.33;19.73;;;;;;;3.20;100.00;99651.62;1659159;86;21194;-70
2021/01/04 09:51:45;;;;;;;35.75;21.40;;;;;;;3.23;100.00;99651.77;1672738;86;21194;-71
2021/01/04 09:54:20;;;;;;;38.20;22.15;;;;;;;3.34;100.00;99652.34;1659161;86;21198;-69
2021/01/04 09:56:49;;;;;;;36.20;20.17;;;;;;;3.33;100.00;99651.44;1675190;86;21190;-69
2021/01/04 09:59:24;;;;;;;35.52;19.55;;;;;;;3.30;100.00;99647.46;1664115;86;21573;-72
2021/01/04 10:02:00;;;;;;;33.80;20.43;;;;;;;3.25;100.00;99637.42;1700121;84;21153;-69
2021/01/04 10:04:41;;;;;;;37.90;21.87;;;;;;;3.24;100.00;99640.38;1664099;86;21323;-70
2021/01/04 10:07:13;;;;;;;35.52;21.02;;;;;;;3.23;100.00;99646.66;1699809;84;21343;-70
2021/01/04 10:09:46;;;;;;;40.48;22.00;;;;;;;3.22;100.00;99645.80;1699745;83;21174;-71
2021/01/04 10:12:18;;;;;;;42.30;23.12;;;;;;;3.19;100.00;99645.64;1699852;84;21166;-71
2021/01/04 10:14:54;;;;;;;41.88;23.70;;;;;;;3.21;100.00;99635.53;1661579;86;21612;-70
2021/01/04 10:17:42;;;;;;;41.00;24.57;;;;;;;3.27;100.00;99639.66;1697565;84;21608;-71
2021/01/04 10:20:27;;;;;;;42.15;23.42;;;;;;;3.39;100.00;99629.20;1853571;77;22156;-72
2021/01/04 10:22:57;;;;;;;41.85;23.83;;;;;;;3.38;100.00;99641.47;1752018;81;21150;-70
2021/01/04 10:25:55;;;;;;;41.20;22.03;;;;;;;3.37;100.00;99627.84;1760605;80;21585;-74
2021/01/04 10:28:23;;;;;;;46.70;25.02;;;;;;;3.39;100.00;99627.94;1658655;86;21871;-68
2021/01/04 10:31:11;;;;;;;40.73;25.90;;;;;;;3.42;100.00;99634.45;1693117;85;21150;-68
2021/01/04 10:33:40;;;;;;;46.20;25.75;;;;;;;3.46;100.00;99622.31;1693139;85;21161;-69
2021/01/04 10:36:16;;;;;;;42.08;23.00;;;;;;;3.47;100.00;99624.95;1693180;85;21295;-69
2021/01/04 10:39:09;;;;;;;42.30;23.92;;;;;;;3.51;100.00;99623.82;1692997;85;21171;-68
2021/01/04 10:41:36;;;;;;;41.68;24.23;;;;;;;3.55;100.00;99629.56;1693219;84;21702;-68
2021/01/04 10:44:21;;;;;;;44.77;24.77;;;;;;;3.55;100.00;99630.44;1692857;84;21177;-69
2021/01/04 10:47:04;;;;;;;43.48;25.15;;;;;;;3.58;100.00;99631.85;1692481;84;21679;-70
2021/01/04 10:49:35;;;;;;;45.35;24.95;;;;;;;3.59;100.00;99636.58;1692687;84;21150;-70
2021/01/04 10:52:04;;;;;;;45.50;24.55;;;;;;;3.57;100.00;99640.33;1693007;85;21315;-72
2021/01/04 10:54:41;;;;;;;48.42;26.57;;;;;;;3.53;100.00;99647.34;1693040;84;21169;-68
2021/01/04 10:57:36;;;;;;;48.85;27.05;;;;;;;3.53;100.00;99644.78;1693224;85;21802;-69
2021/01/04 11:00:21;;;;;;;46.80;26.65;;;;;;;3.58;100.00;99640.78;1690583;84;21135;-70
2021/01/04 11:02:52;;;;;;;51.80;28.02;;;;;;;3.54;100.00;99644.41;1689845;85;21604;-70
2021/01/04 11:05:40;;;;;;;50.25;27.00;;;;;;;3.51;100.00;99642.95;1695259;83;21417;-73
2021/01/04 11:08:33;;;;;;;55.05;29.77;;;;;;;3.45;100.00;99635.87;1701010;83;21306;-69
2021/01/04 11:11:25;;;;;;;74.37;36.38;;;;;;;3.44;100.00;99632.86;1684310;84;21285;-69
2021/01/04 11:13:52;;;;;;;60.23;29.70;;;;;;;3.47;100.00;99638.11;1684940;84;21588;-71
2021/01/04 11:16:20;;;;;;;60.65;31.85;;;;;;;3.49;100.00;99633.97;1687867;85;21250;-70
2021/01/04 11:18:53;;;;;;;57.88;31.55;;;;;;;3.48;100.00;99627.09;1686007;85;21162;-70
2021/01/04 11:21:37;;;;;;;55.78;28.10;;;;;;;3.50;100.00;99634.44;1671923;85;21219;-70
2021/01/04 11:24:07;;;;;;;59.58;33.40;;;;;;;3.52;100.00;99635.39;1678084;84;21314;-69
2021/01/04 11:26:35;;;;;;;59.98;28.55;;;;;;;3.50;100.00;99636.11;1687751;85;21164;-72
2021/01/04 11:29:04;;;;;;;61.55;32.15;;;;;;;3.51;100.00;99628.55;1686074;84;21393;-73
2021/01/04 11:31:36;;;;;;;59.70;33.20;;;;;;;3.53;100.00;99622.23;1686347;84;21150;-72
2021/01/04 11:34:05;;;;;;;62.30;33.30;;;;;;;3.50;100.00;99625.50;1680161;84;21323;-72
2021/01/04 11:36:33;;;;;;;67.40;33.78;;;;;;;3.45;100.00;99608.69;1686978;84;21646;-69
2021/01/04 11:39:01;;;;;;;56.77;31.50;;;;;;;3.47;100.00;99613.88;1687570;84;21589;-69
2021/01/04 11:41:29;;;;;;;51.48;26.97;;;;;;;3.50;100.00;99596.56;1687879;84;21166;-72
2021/01/04 11:43:56;;;;;;;63.45;29.55;;;;;;;3.50;100.00;99608.05;1687691;85;21161;-71
2021/01/04 11:46:25;;;;;;;57.98;31.45;;;;;;;3.42;100.00;99611.09;1688003;85;21173;-70
2021/01/04 11:48:52;;;;;;;71.15;34.18;;;;;;;3.42;100.00;99612.77;1687627;85;21168;-71
2021/01/04 11:51:21;;;;;;;65.22;32.38;;;;;;;3.43;100.00;99605.58;1687574;84;21578;-69
2021/01/04 11:53:51;;;;;;;68.02;33.53;;;;;;;3.45;100.00;99602.71;1687855;84;21591;-67
2021/01/04 11:56:19;;;;;;;62.35;31.82;;;;;;;3.44;100.00;99612.05;1687544;84;21583;-70
2021/01/04 11:58:48;;;;;;;62.93;33.10;;;;;;;3.43;100.00;99617.06;1687633;85;21338;-70
2021/01/04 12:01:16;;;;;;;58.55;30.97;;;;;;;3.39;100.00;99621.15;1687918;85;21145;-68
2021/01/04 12:03:55;;;;;;;64.32;32.25;;;;;;;3.39;100.00;99630.08;1687786;85;21164;-68
2021/01/04 12:06:22;;;;;;;60.85;30.77;;;;;;;3.41;100.00;99624.66;1687883;85;21188;-68
2021/01/04 12:08:50;;;;;;;62.03;31.05;;;;;;;3.42;100.00;99617.88;1687754;84;21164;-70
2021/01/04 12:11:17;;;;;;;57.10;31.82;;;;;;;3.39;100.00;99631.77;1687818;85;21247;-68
2021/01/04 12:13:45;;;;;;;61.60;32.55;;;;;;;3.34;100.00;99626.83;1687827;84;21140;-68
2021/01/04 12:16:13;;;;;;;70.17;35.33;;;;;;;3.36;100.00;99627.37;1687866;85;21179;-68
2021/01/04 12:18:41;;;;;;;71.47;35.23;;;;;;;3.39;100.00;99630.48;1687777;85;21136;-68
2021/01/04 12:21:09;;;;;;;62.08;33.78;;;;;;;3.43;100.00;99631.09;1687892;85;21571;-69
2021/01/04 12:23:37;;;;;;;60.08;31.97;;;;;;;3.45;100.00;99635.87;1687583;85;21172;-68
2021/01/04 12:26:05;;;;;;;54.95;30.23;;;;;;;3.48;100.00;99637.30;1687557;84;21650;-67
2021/01/04 12:28:33;;;;;;;55.50;30.92;;;;;;;3.44;100.00;99632.45;1687731;85;21180;-69
2021/01/04 12:31:00;;;;;;;65.05;30.95;;;;;;;3.44;100.00;99636.28;1687909;84;21559;-69